N51TM KIER-KIWS
Flight info
| Callsign | N51TM |
|---|---|
| Flight time | 0h 37m |
| Altitude | 32000 |
| Route | AEX HUDZY5 |
| Aircraft | C700/M-SBDGHM1RWXY/LB2 |
Departure
| Time | 2026-04-14 01:34 |
|---|---|
| Airport | Natchitoches Regional Airport (KIER) |
Arrival
| Time | 2026-04-14 02:11 |
|---|---|
| Airport | West Houston Airport (KIWS) |
| Time | Latitude | Longitude | Altitude | Speed | Heading |
|---|---|---|---|---|---|
| 2026-04-14 01:25 | 31.73560 | -93.09650 | 111 ft | 0 kts | 251° |
| 2026-04-14 01:32 | 31.73566 | -93.09660 | 121 ft | 5 kts | 327° |
| 2026-04-14 01:32 | 31.73605 | -93.09739 | 120 ft | 14 kts | 290° |
| 2026-04-14 01:32 | 31.73725 | -93.09782 | 120 ft | 24 kts | 347° |
| 2026-04-14 01:32 | 31.73900 | -93.09829 | 118 ft | 20 kts | 346° |
| 2026-04-14 01:33 | 31.73952 | -93.09905 | 122 ft | 13 kts | 240° |
| 2026-04-14 01:33 | 31.73882 | -93.09921 | 118 ft | 0 kts | 162° |
| 2026-04-14 01:33 | 31.73731 | -93.09878 | 118 ft | 70 kts | 167° |
| 2026-04-14 01:33 | 31.72922 | -93.09656 | 327 ft | 157 kts | 167° |
| 2026-04-14 01:34 | 31.71705 | -93.09379 | 1401 ft | 194 kts | 179° |
| 2026-04-14 01:34 | 31.70316 | -93.09649 | 2873 ft | 211 kts | 187° |
| 2026-04-14 01:34 | 31.68783 | -93.09733 | 4331 ft | 233 kts | 180° |
| 2026-04-14 01:34 | 31.67085 | -93.09749 | 5837 ft | 251 kts | 181° |
| 2026-04-14 01:35 | 31.65296 | -93.09753 | 7492 ft | 263 kts | 181° |
| 2026-04-14 01:35 | 31.63434 | -93.09721 | 9158 ft | 272 kts | 181° |
| 2026-04-14 01:35 | 31.61504 | -93.09663 | 10667 ft | 287 kts | 181° |
| 2026-04-14 01:35 | 31.59418 | -93.09583 | 11816 ft | 311 kts | 180° |
| 2026-04-14 01:36 | 31.57239 | -93.09489 | 13492 ft | 315 kts | 181° |
| 2026-04-14 01:36 | 31.55014 | -93.09376 | 14966 ft | 325 kts | 180° |
| 2026-04-14 01:36 | 31.52741 | -93.09492 | 16276 ft | 330 kts | 196° |
| 2026-04-14 01:36 | 31.50686 | -93.10690 | 17618 ft | 334 kts | 216° |
| 2026-04-14 01:37 | 31.48808 | -93.12352 | 18858 ft | 343 kts | 220° |
| 2026-04-14 01:37 | 31.46878 | -93.14032 | 20043 ft | 349 kts | 217° |
| 2026-04-14 01:37 | 31.44767 | -93.15507 | 21212 ft | 357 kts | 210° |
| 2026-04-14 01:37 | 31.42515 | -93.16810 | 22362 ft | 364 kts | 208° |
| 2026-04-14 01:38 | 31.38009 | -93.19720 | 24415 ft | 376 kts | 212° |
| 2026-04-14 01:38 | 31.35717 | -93.21246 | 25357 ft | 382 kts | 211° |
| 2026-04-14 01:38 | 31.33368 | -93.22738 | 26314 ft | 387 kts | 211° |
| 2026-04-14 01:39 | 31.30983 | -93.24260 | 27231 ft | 393 kts | 211° |
| 2026-04-14 01:39 | 31.28574 | -93.25828 | 28108 ft | 399 kts | 212° |
| 2026-04-14 01:39 | 31.26128 | -93.27420 | 28973 ft | 405 kts | 211° |
| 2026-04-14 01:39 | 31.23645 | -93.29019 | 29853 ft | 411 kts | 211° |
| 2026-04-14 01:40 | 31.21157 | -93.30618 | 30654 ft | 416 kts | 211° |
| 2026-04-14 01:40 | 31.18607 | -93.32264 | 31395 ft | 421 kts | 212° |
| 2026-04-14 01:40 | 31.16032 | -93.33928 | 32085 ft | 427 kts | 212° |
| 2026-04-14 01:40 | 31.13374 | -93.35643 | 32147 ft | 447 kts | 212° |
| 2026-04-14 01:41 | 31.10586 | -93.37437 | 32167 ft | 467 kts | 211° |
| 2026-04-14 01:41 | 31.07698 | -93.39291 | 32168 ft | 478 kts | 211° |
| 2026-04-14 01:41 | 31.01781 | -93.43091 | 32177 ft | 484 kts | 211° |
| 2026-04-14 01:42 | 30.95922 | -93.46850 | 32181 ft | 484 kts | 211° |
| 2026-04-14 01:42 | 30.90018 | -93.50633 | 32186 ft | 484 kts | 211° |
| 2026-04-14 01:43 | 30.84111 | -93.54414 | 32186 ft | 485 kts | 211° |
| 2026-04-14 01:43 | 30.78200 | -93.58189 | 32177 ft | 485 kts | 211° |
| 2026-04-14 01:44 | 30.72291 | -93.61959 | 32169 ft | 485 kts | 211° |
| 2026-04-14 01:44 | 30.66371 | -93.65731 | 32162 ft | 485 kts | 211° |
| 2026-04-14 01:45 | 30.60647 | -93.69826 | 32144 ft | 482 kts | 220° |
| 2026-04-14 01:45 | 30.56034 | -93.75399 | 32141 ft | 479 kts | 235° |
| 2026-04-14 01:46 | 30.52370 | -93.81836 | 32142 ft | 478 kts | 238° |
| 2026-04-14 01:46 | 30.50544 | -93.85043 | 31873 ft | 472 kts | 238° |
| 2026-04-14 01:46 | 30.48768 | -93.88177 | 31271 ft | 459 kts | 238° |
| 2026-04-14 01:47 | 30.47034 | -93.91247 | 30672 ft | 453 kts | 238° |
| 2026-04-14 01:47 | 30.45301 | -93.94303 | 30051 ft | 455 kts | 238° |
| 2026-04-14 01:47 | 30.43568 | -93.97350 | 29431 ft | 451 kts | 238° |
| 2026-04-14 01:47 | 30.41850 | -94.00371 | 28844 ft | 447 kts | 237° |
| 2026-04-14 01:48 | 30.40148 | -94.03362 | 28257 ft | 443 kts | 238° |
| 2026-04-14 01:48 | 30.38462 | -94.06331 | 27673 ft | 439 kts | 237° |
| 2026-04-14 01:48 | 30.36790 | -94.09269 | 27098 ft | 435 kts | 237° |
| 2026-04-14 01:48 | 30.35125 | -94.12184 | 26530 ft | 432 kts | 237° |
| 2026-04-14 01:49 | 30.33475 | -94.15078 | 25963 ft | 429 kts | 237° |
| 2026-04-14 01:49 | 30.31840 | -94.17944 | 25408 ft | 425 kts | 237° |
| 2026-04-14 01:49 | 30.30215 | -94.20790 | 24848 ft | 422 kts | 237° |
| 2026-04-14 01:49 | 30.28603 | -94.23609 | 24290 ft | 418 kts | 237° |
| 2026-04-14 01:50 | 30.27003 | -94.26405 | 23738 ft | 415 kts | 237° |
| 2026-04-14 01:50 | 30.25419 | -94.29173 | 23153 ft | 411 kts | 237° |
| 2026-04-14 01:50 | 30.23883 | -94.31941 | 22610 ft | 407 kts | 241° |
| 2026-04-14 01:50 | 30.22721 | -94.34898 | 22078 ft | 403 kts | 250° |
| 2026-04-14 01:51 | 30.21884 | -94.37980 | 21549 ft | 400 kts | 253° |
| 2026-04-14 01:51 | 30.21071 | -94.41046 | 21023 ft | 398 kts | 253° |
| 2026-04-14 01:51 | 30.20247 | -94.44089 | 20497 ft | 395 kts | 253° |
| 2026-04-14 01:51 | 30.19438 | -94.47109 | 19977 ft | 392 kts | 253° |
| 2026-04-14 01:52 | 30.18638 | -94.50113 | 19460 ft | 390 kts | 253° |
| 2026-04-14 01:52 | 30.17839 | -94.53097 | 18946 ft | 387 kts | 253° |
| 2026-04-14 01:52 | 30.17044 | -94.56056 | 18430 ft | 385 kts | 253° |
| 2026-04-14 01:52 | 30.16265 | -94.58958 | 17891 ft | 381 kts | 252° |
| 2026-04-14 01:53 | 30.15483 | -94.61871 | 17392 ft | 377 kts | 252° |
| 2026-04-14 01:53 | 30.14708 | -94.64752 | 16894 ft | 375 kts | 252° |
| 2026-04-14 01:53 | 30.13938 | -94.67612 | 16404 ft | 372 kts | 252° |
| 2026-04-14 01:53 | 30.13172 | -94.70455 | 15914 ft | 369 kts | 252° |
| 2026-04-14 01:54 | 30.12414 | -94.73265 | 15426 ft | 361 kts | 252° |
| 2026-04-14 01:54 | 30.11686 | -94.75963 | 14961 ft | 344 kts | 251° |
| 2026-04-14 01:54 | 30.10983 | -94.78565 | 14502 ft | 336 kts | 251° |
| 2026-04-14 01:54 | 30.10289 | -94.81127 | 14150 ft | 331 kts | 251° |
| 2026-04-14 01:55 | 30.09607 | -94.83644 | 14137 ft | 331 kts | 251° |
| 2026-04-14 01:55 | 30.08938 | -94.86106 | 14133 ft | 333 kts | 251° |
| 2026-04-14 01:55 | 30.08246 | -94.88664 | 14133 ft | 334 kts | 251° |
| 2026-04-14 01:55 | 30.07546 | -94.91239 | 13832 ft | 336 kts | 251° |
| 2026-04-14 01:56 | 30.06850 | -94.93804 | 13498 ft | 333 kts | 251° |
| 2026-04-14 01:56 | 30.06157 | -94.96350 | 13172 ft | 331 kts | 251° |
| 2026-04-14 01:56 | 30.05703 | -94.98943 | 12818 ft | 333 kts | 267° |
| 2026-04-14 01:56 | 30.06103 | -95.01531 | 12396 ft | 322 kts | 285° |
| 2026-04-14 01:57 | 30.06877 | -95.03848 | 12275 ft | 298 kts | 290° |
| 2026-04-14 01:57 | 30.07695 | -95.06052 | 11138 ft | 307 kts | 291° |
| 2026-04-14 01:57 | 30.08577 | -95.08371 | 10221 ft | 314 kts | 291° |
| 2026-04-14 01:57 | 30.09377 | -95.10464 | 9586 ft | 306 kts | 291° |
| 2026-04-14 01:58 | 30.10236 | -95.12709 | 8765 ft | 304 kts | 291° |
| 2026-04-14 01:58 | 30.11087 | -95.14935 | 7982 ft | 302 kts | 291° |
| 2026-04-14 01:58 | 30.11931 | -95.17142 | 7244 ft | 299 kts | 291° |
| 2026-04-14 01:58 | 30.12311 | -95.19373 | 7114 ft | 273 kts | 263° |
| 2026-04-14 01:59 | 30.11781 | -95.21441 | 7123 ft | 269 kts | 247° |
| 2026-04-14 01:59 | 30.11109 | -95.23466 | 7127 ft | 271 kts | 250° |
| 2026-04-14 01:59 | 30.10771 | -95.24853 | 7118 ft | 271 kts | 255° |
| 2026-04-14 01:59 | 30.10402 | -95.26990 | 7124 ft | 272 kts | 258° |
| 2026-04-14 02:00 | 30.10028 | -95.29131 | 7127 ft | 272 kts | 256° |
| 2026-04-14 02:00 | 30.09601 | -95.31263 | 7093 ft | 273 kts | 255° |
| 2026-04-14 02:00 | 30.09169 | -95.33411 | 6840 ft | 273 kts | 256° |
| 2026-04-14 02:00 | 30.08624 | -95.36234 | 6468 ft | 271 kts | 256° |
| 2026-04-14 02:01 | 30.08345 | -95.37668 | 6269 ft | 270 kts | 256° |
| 2026-04-14 02:01 | 30.07931 | -95.39779 | 5974 ft | 269 kts | 256° |
| 2026-04-14 02:01 | 30.07517 | -95.41888 | 5671 ft | 269 kts | 255° |
| 2026-04-14 02:01 | 30.07106 | -95.43988 | 5382 ft | 268 kts | 255° |
| 2026-04-14 02:02 | 30.06697 | -95.46075 | 5093 ft | 264 kts | 255° |
| 2026-04-14 02:02 | 30.06301 | -95.48100 | 4805 ft | 253 kts | 255° |
| 2026-04-14 02:02 | 30.05919 | -95.50047 | 4505 ft | 245 kts | 254° |
| 2026-04-14 02:02 | 30.05546 | -95.51943 | 4207 ft | 239 kts | 253° |
| 2026-04-14 02:03 | 30.05180 | -95.53798 | 3905 ft | 235 kts | 253° |
| 2026-04-14 02:03 | 30.04825 | -95.55597 | 3609 ft | 231 kts | 253° |
| 2026-04-14 02:03 | 30.04473 | -95.57392 | 3322 ft | 228 kts | 252° |
| 2026-04-14 02:03 | 30.04119 | -95.59169 | 3013 ft | 227 kts | 252° |
| 2026-04-14 02:04 | 30.03772 | -95.60936 | 2716 ft | 225 kts | 251° |
| 2026-04-14 02:04 | 30.03425 | -95.62695 | 2416 ft | 224 kts | 251° |
| 2026-04-14 02:04 | 30.03079 | -95.64438 | 2151 ft | 221 kts | 250° |
| 2026-04-14 02:04 | 30.02751 | -95.66115 | 2139 ft | 210 kts | 250° |
| 2026-04-14 02:05 | 30.02418 | -95.67770 | 2123 ft | 216 kts | 250° |
| 2026-04-14 02:05 | 30.02078 | -95.69476 | 2119 ft | 219 kts | 251° |
| 2026-04-14 02:05 | 30.01647 | -95.71130 | 2112 ft | 211 kts | 238° |
| 2026-04-14 02:05 | 30.00861 | -95.72510 | 2111 ft | 202 kts | 225° |
| 2026-04-14 02:06 | 29.99830 | -95.73589 | 2113 ft | 201 kts | 211° |
| 2026-04-14 02:06 | 29.98607 | -95.74328 | 2102 ft | 197 kts | 197° |
| 2026-04-14 02:06 | 29.97285 | -95.74682 | 2104 ft | 194 kts | 184° |
| 2026-04-14 02:06 | 29.95928 | -95.74645 | 2101 ft | 196 kts | 171° |
| 2026-04-14 02:07 | 29.94624 | -95.74223 | 2105 ft | 195 kts | 158° |
| 2026-04-14 02:07 | 29.93400 | -95.73537 | 2112 ft | 194 kts | 155° |
| 2026-04-14 02:07 | 29.92214 | -95.72905 | 2112 ft | 186 kts | 157° |
| 2026-04-14 02:07 | 29.91173 | -95.72338 | 1996 ft | 134 kts | 156° |
| 2026-04-14 02:08 | 29.90344 | -95.71889 | 1815 ft | 129 kts | 157° |
| 2026-04-14 02:08 | 29.89556 | -95.71459 | 1643 ft | 125 kts | 157° |
| 2026-04-14 02:08 | 29.88824 | -95.71063 | 1482 ft | 110 kts | 157° |
| 2026-04-14 02:08 | 29.88134 | -95.70692 | 1334 ft | 110 kts | 156° |
| 2026-04-14 02:09 | 29.87450 | -95.70316 | 1199 ft | 108 kts | 155° |
| 2026-04-14 02:09 | 29.86767 | -95.69950 | 1084 ft | 107 kts | 154° |
| 2026-04-14 02:09 | 29.86114 | -95.69565 | 989 ft | 108 kts | 154° |
| 2026-04-14 02:09 | 29.85423 | -95.69186 | 836 ft | 111 kts | 156° |
| 2026-04-14 02:10 | 29.84732 | -95.68814 | 644 ft | 113 kts | 154° |
| 2026-04-14 02:10 | 29.84003 | -95.68403 | 519 ft | 116 kts | 155° |
| 2026-04-14 02:10 | 29.83296 | -95.68035 | 395 ft | 111 kts | 157° |
| 2026-04-14 02:10 | 29.82603 | -95.67675 | 252 ft | 102 kts | 158° |
| 2026-04-14 02:11 | 29.82025 | -95.67373 | 128 ft | 78 kts | 155° |
| 2026-04-14 02:11 | 29.81771 | -95.67239 | 126 ft | 28 kts | 157° |
| 2026-04-14 02:11 | 29.81598 | -95.67186 | 126 ft | 22 kts | 188° |
| 2026-04-14 02:11 | 29.81520 | -95.67270 | 124 ft | 15 kts | 274° |
| 2026-04-14 02:12 | 29.81529 | -95.67310 | 123 ft | 0 kts | 287° |